createdAt,value
2023-03-18T00:01:11.764Z,100356.50
2023-03-18T00:03:39.294Z,100367.09
2023-03-18T00:06:16.728Z,100365.94
2023-03-18T00:08:45.467Z,100369.72
2023-03-18T00:11:14.621Z,100375.06
2023-03-18T00:13:42.495Z,100374.81
2023-03-18T00:16:11.549Z,100370.78
2023-03-18T00:18:40.297Z,100375.03
2023-03-18T00:21:08.431Z,100379.25
2023-03-18T00:23:37.052Z,100383.81
2023-03-18T00:26:04.958Z,100378.59
2023-03-18T00:28:32.763Z,100379.00
2023-03-18T00:31:09.310Z,100373.88
2023-03-18T00:33:38.327Z,100382.78
2023-03-18T00:36:11.161Z,100388.84
2023-03-18T00:38:38.574Z,100389.28
2023-03-18T00:41:12.091Z,100390.84
2023-03-18T00:43:52.733Z,100392.88
2023-03-18T00:46:24.507Z,100389.84
2023-03-18T00:48:54.149Z,100384.44
2023-03-18T00:51:22.984Z,100374.34
2023-03-18T00:53:52.551Z,100382.19
2023-03-18T00:56:22.267Z,100377.25
2023-03-18T00:58:52.569Z,100371.09
2023-03-18T01:01:21.362Z,100381.09
2023-03-18T01:03:50.122Z,100374.66
2023-03-18T01:06:22.686Z,100374.75
2023-03-18T01:08:50.629Z,100380.22
2023-03-18T01:11:18.779Z,100374.41
2023-03-18T01:13:46.609Z,100380.56
2023-03-18T01:16:14.418Z,100375.22
2023-03-18T01:18:41.979Z,100377.66
2023-03-18T01:21:10.068Z,100369.75
2023-03-18T01:23:42.402Z,100369.09
2023-03-18T01:26:10.806Z,100377.38
2023-03-18T01:28:42.501Z,100362.44
2023-03-18T01:31:09.945Z,100356.53
2023-03-18T01:33:37.342Z,100368.59
2023-03-18T01:36:05.310Z,100361.19
2023-03-18T01:38:33.961Z,100359.94
2023-03-18T01:41:11.274Z,100359.19
2023-03-18T01:43:41.237Z,100348.84
2023-03-18T01:46:40.850Z,100354.00
2023-03-18T01:49:17.544Z,100350.03
2023-03-18T01:52:00.491Z,100354.38
2023-03-18T01:54:29.769Z,100352.91
2023-03-18T01:56:57.451Z,100360.47
2023-03-18T01:59:28.463Z,100351.69
2023-03-18T02:02:03.287Z,100358.44
2023-03-18T02:04:37.639Z,100352.75
2023-03-18T02:07:07.872Z,100356.69
2023-03-18T02:09:35.261Z,100352.13
2023-03-18T02:12:04.314Z,100336.72
2023-03-18T02:14:32.398Z,100343.31
2023-03-18T02:17:12.633Z,100343.56
2023-03-18T02:19:54.435Z,100352.38
2023-03-18T02:22:29.381Z,100359.38
2023-03-18T02:25:12.128Z,100360.84
2023-03-18T02:27:42.672Z,100352.59
2023-03-18T02:30:22.914Z,100352.06
2023-03-18T02:32:53.191Z,100344.28
2023-03-18T02:35:20.731Z,100340.28
2023-03-18T02:37:48.989Z,100349.16
2023-03-18T02:40:33.297Z,100354.56
2023-03-18T02:43:32.693Z,100358.88
2023-03-18T02:46:15.479Z,100374.25
2023-03-18T02:48:44.878Z,100371.03
2023-03-18T02:51:14.586Z,100367.63
2023-03-18T02:53:43.823Z,100367.88
2023-03-18T02:56:13.555Z,100360.41
2023-03-18T02:58:42.661Z,100360.66
2023-03-18T03:01:11.492Z,100362.09
2023-03-18T03:03:39.384Z,100359.72
2023-03-18T03:06:07.670Z,100370.38
2023-03-18T03:08:35.180Z,100364.03
2023-03-18T03:11:05.574Z,100362.84
2023-03-18T03:13:36.075Z,100365.84
2023-03-18T03:16:03.859Z,100362.47
2023-03-18T03:18:31.201Z,100366.13
2023-03-18T03:20:58.878Z,100372.31
2023-03-18T03:23:26.226Z,100374.25
2023-03-18T03:25:53.524Z,100380.19
2023-03-18T03:28:21.303Z,100381.34
2023-03-18T03:30:49.544Z,100369.75
2023-03-18T03:33:16.909Z,100374.94
2023-03-18T03:35:44.203Z,100369.59
2023-03-18T03:38:12.293Z,100379.44
2023-03-18T03:40:40.260Z,100375.66
2023-03-18T03:43:07.611Z,100391.53
2023-03-18T03:45:34.850Z,100392.09
2023-03-18T03:48:02.121Z,100384.94
2023-03-18T03:50:29.798Z,100389.25
2023-03-18T03:52:58.249Z,100385.69
2023-03-18T03:55:27.798Z,100384.84
2023-03-18T03:57:56.447Z,100385.94
2023-03-18T04:00:24.648Z,100388.16
2023-03-18T04:02:53.027Z,100385.56
2023-03-18T04:05:23.572Z,100393.06
2023-03-18T04:07:51.520Z,100390.16
2023-03-18T04:10:23.004Z,100384.94
2023-03-18T04:12:50.883Z,100386.41
2023-03-18T04:15:19.909Z,100387.84
2023-03-18T04:17:49.998Z,100387.19
2023-03-18T04:20:19.107Z,100384.44
2023-03-18T04:22:47.945Z,100379.19
2023-03-18T04:25:17.283Z,100382.69
2023-03-18T04:27:45.069Z,100400.31
2023-03-18T04:30:14.173Z,100390.13
2023-03-18T04:32:55.008Z,100382.66
2023-03-18T04:35:26.146Z,100392.34
2023-03-18T04:37:54.267Z,100388.31
2023-03-18T04:40:22.376Z,100387.50
2023-03-18T04:42:50.279Z,100404.22
2023-03-18T04:45:23.276Z,100394.66
2023-03-18T04:47:50.776Z,100404.28
2023-03-18T04:50:19.172Z,100406.56
2023-03-18T04:52:47.178Z,100399.44
2023-03-18T04:55:20.633Z,100400.88
2023-03-18T04:57:50.760Z,100410.59
2023-03-18T05:00:22.332Z,100399.72
2023-03-18T05:02:53.323Z,100397.56
2023-03-18T05:05:23.314Z,100396.94
2023-03-18T05:07:52.187Z,100383.63
2023-03-18T05:10:21.337Z,100386.59
2023-03-18T05:12:48.883Z,100387.38
2023-03-18T05:15:20.309Z,100384.13
2023-03-18T05:17:53.842Z,100383.84
2023-03-18T05:20:21.469Z,100388.69
2023-03-18T05:22:49.176Z,100386.94
2023-03-18T05:25:27.130Z,100387.56
2023-03-18T05:27:54.602Z,100384.00
2023-03-18T05:30:33.041Z,100381.56
2023-03-18T05:33:00.456Z,100383.47
2023-03-18T05:35:48.684Z,100378.66
2023-03-18T05:38:18.797Z,100384.50
2023-03-18T05:40:46.794Z,100384.34
2023-03-18T05:43:21.899Z,100384.34
2023-03-18T05:45:53.254Z,100382.06
2023-03-18T05:48:27.129Z,100379.00
2023-03-18T05:50:58.819Z,100383.06
2023-03-18T05:53:27.833Z,100378.84
2023-03-18T05:56:08.759Z,100384.50
2023-03-18T05:58:36.956Z,100378.19
2023-03-18T06:01:22.742Z,100380.59
2023-03-18T06:03:50.752Z,100386.44
2023-03-18T06:06:19.805Z,100386.63
2023-03-18T06:08:47.172Z,100391.50
2023-03-18T06:11:15.268Z,100395.53
2023-03-18T06:13:44.132Z,100389.53
2023-03-18T06:16:12.459Z,100390.50
2023-03-18T06:18:40.731Z,100393.59
2023-03-18T06:21:10.035Z,100392.94
2023-03-18T06:23:37.739Z,100383.53
2023-03-18T06:26:05.253Z,100380.16
2023-03-18T06:28:37.520Z,100378.97
2023-03-18T06:31:10.787Z,100401.38
2023-03-18T06:33:39.243Z,100400.72
2023-03-18T06:36:09.100Z,100402.50
2023-03-18T06:38:40.565Z,100408.19
2023-03-18T06:41:08.902Z,100407.19
2023-03-18T06:43:40.411Z,100415.31
2023-03-18T06:46:08.081Z,100404.75
2023-03-18T06:48:36.515Z,100402.78
2023-03-18T06:51:03.930Z,100400.53
2023-03-18T06:53:36.535Z,100404.94
2023-03-18T06:56:06.058Z,100412.72
2023-03-18T06:58:43.484Z,100414.47
2023-03-18T07:01:12.717Z,100415.78
2023-03-18T07:03:43.640Z,100412.88
2023-03-18T07:06:12.362Z,100413.97
2023-03-18T07:08:40.994Z,100420.34
2023-03-18T07:11:08.757Z,100425.34
2023-03-18T07:13:39.332Z,100426.50
2023-03-18T07:16:13.567Z,100415.25
2023-03-18T07:18:40.961Z,100412.06
2023-03-18T07:21:09.708Z,100417.72
2023-03-18T07:23:37.601Z,100428.91
2023-03-18T07:26:05.062Z,100429.75
2023-03-18T07:28:32.927Z,100430.53
2023-03-18T07:31:01.168Z,100424.69
2023-03-18T07:33:28.989Z,100432.31
2023-03-18T07:35:56.808Z,100424.06
2023-03-18T07:38:24.356Z,100419.31
2023-03-18T07:40:52.290Z,100417.72
2023-03-18T07:43:19.567Z,100422.59
2023-03-18T07:45:46.806Z,100424.84
2023-03-18T07:48:14.340Z,100424.22
2023-03-18T07:50:41.909Z,100425.34
2023-03-18T07:53:09.383Z,100422.56
2023-03-18T07:55:36.619Z,100419.50
2023-03-18T07:58:04.686Z,100424.84
2023-03-18T08:00:32.444Z,100420.13
2023-03-18T08:02:59.746Z,100420.44
2023-03-18T08:05:27.601Z,100425.63
2023-03-18T08:07:55.306Z,100424.69
2023-03-18T08:10:22.590Z,100425.06
2023-03-18T08:12:53.498Z,100428.47
2023-03-18T08:15:22.357Z,100437.50
2023-03-18T08:17:52.565Z,100443.16
2023-03-18T08:20:20.168Z,100434.59
2023-03-18T08:22:48.457Z,100439.06
2023-03-18T08:25:15.849Z,100447.28
2023-03-18T08:27:43.237Z,100447.00
2023-03-18T08:30:11.522Z,100440.94
2023-03-18T08:32:39.838Z,100450.03
2023-03-18T08:35:07.443Z,100443.13
2023-03-18T08:37:35.862Z,100440.91
2023-03-18T08:40:05.231Z,100440.19
2023-03-18T08:42:32.513Z,100443.13
2023-03-18T08:44:59.745Z,100436.84
2023-03-18T08:47:27.487Z,100435.25
2023-03-18T08:49:54.654Z,100435.84
2023-03-18T08:52:22.458Z,100427.31
2023-03-18T08:54:49.898Z,100431.78
2023-03-18T08:57:17.996Z,100441.69
2023-03-18T08:59:45.797Z,100437.56
2023-03-18T09:02:18.393Z,100439.25
2023-03-18T09:04:46.642Z,100438.69
2023-03-18T09:07:14.741Z,100429.56
2023-03-18T09:09:44.062Z,100432.28
2023-03-18T09:12:14.103Z,100432.66
2023-03-18T09:14:43.698Z,100434.75
2023-03-18T09:17:11.387Z,100438.34
2023-03-18T09:19:38.741Z,100440.78
2023-03-18T09:22:05.999Z,100440.84
2023-03-18T09:24:33.319Z,100438.41
2023-03-18T09:27:00.555Z,100437.50
2023-03-18T09:29:27.871Z,100442.31
2023-03-18T09:31:55.732Z,100430.91
2023-03-18T09:34:23.669Z,100435.47
2023-03-18T09:36:51.923Z,100422.53
2023-03-18T09:39:20.428Z,100429.16
2023-03-18T09:42:03.722Z,100428.13
2023-03-18T09:44:36.345Z,100419.56
2023-03-18T09:47:28.399Z,100414.13
2023-03-18T09:50:16.792Z,100423.47
2023-03-18T09:52:48.008Z,100411.38
2023-03-18T09:55:27.378Z,100422.91
2023-03-18T09:57:57.698Z,100423.81
2023-03-18T10:00:30.124Z,100433.47
2023-03-18T10:03:06.483Z,100429.22
2023-03-18T10:05:34.801Z,100430.78
2023-03-18T10:08:08.235Z,100424.97
2023-03-18T10:10:38.340Z,100424.50
2023-03-18T10:13:13.801Z,100434.41
2023-03-18T10:15:43.288Z,100423.06
2023-03-18T10:18:13.542Z,100432.88
2023-03-18T10:20:56.900Z,100428.22
2023-03-18T10:23:36.379Z,100441.34
2023-03-18T10:26:33.289Z,100445.41
2023-03-18T10:29:03.956Z,100450.09
2023-03-18T10:31:38.905Z,100437.81
2023-03-18T10:34:13.287Z,100442.75
2023-03-18T10:36:49.798Z,100436.75
2023-03-18T10:39:19.590Z,100441.59
2023-03-18T10:41:51.549Z,100435.53
2023-03-18T10:44:33.042Z,100426.56
2023-03-18T10:47:11.444Z,100431.88
2023-03-18T10:49:42.520Z,100443.13
2023-03-18T10:52:43.533Z,100429.09
2023-03-18T10:55:19.960Z,100433.13
2023-03-18T10:57:47.571Z,100432.22
2023-03-18T11:00:30.778Z,100427.75
2023-03-18T11:02:59.415Z,100427.41
2023-03-18T11:05:30.169Z,100429.94
2023-03-18T11:08:00.796Z,100442.03
2023-03-18T11:10:34.621Z,100441.69
2023-03-18T11:13:03.391Z,100431.94
2023-03-18T11:15:37.002Z,100434.81
2023-03-18T11:18:05.305Z,100435.09
2023-03-18T11:20:43.102Z,100431.00
2023-03-18T11:23:18.043Z,100429.91
2023-03-18T11:25:46.947Z,100431.72
2023-03-18T11:28:23.155Z,100423.31
2023-03-18T11:30:56.156Z,100424.16
2023-03-18T11:33:24.846Z,100431.91
2023-03-18T11:35:58.450Z,100426.09
2023-03-18T11:38:31.779Z,100413.69
2023-03-18T11:41:09.149Z,100419.44
2023-03-18T11:43:37.972Z,100424.00
2023-03-18T11:46:05.849Z,100424.16
2023-03-18T11:48:37.441Z,100424.25
2023-03-18T11:51:29.623Z,100430.34
2023-03-18T11:54:19.174Z,100424.97
2023-03-18T11:56:57.543Z,100423.19
2023-03-18T11:59:33.104Z,100433.31
2023-03-18T12:02:22.725Z,100424.78
2023-03-18T12:04:59.343Z,100429.03
2023-03-18T12:07:54.817Z,100424.13
2023-03-18T12:10:24.047Z,100424.81
2023-03-18T12:13:15.831Z,100416.63
2023-03-18T12:16:20.698Z,100425.75
2023-03-18T12:19:33.287Z,100420.47
2023-03-18T12:22:48.965Z,100406.84
2023-03-18T12:26:03.941Z,100413.63
2023-03-18T12:28:41.633Z,100404.47
2023-03-18T12:31:24.928Z,100405.22
2023-03-18T12:34:25.761Z,100409.34
2023-03-18T12:37:02.703Z,100407.00
2023-03-18T12:39:42.816Z,100403.47
2023-03-18T12:42:31.713Z,100406.00
2023-03-18T12:45:02.197Z,100392.25
2023-03-18T12:47:35.895Z,100406.19
2023-03-18T12:50:16.461Z,100413.22
2023-03-18T12:52:52.947Z,100409.47
2023-03-18T12:55:49.419Z,100413.84
2023-03-18T12:58:19.756Z,100414.38
2023-03-18T13:00:53.545Z,100405.88
2023-03-18T13:03:40.184Z,100412.63
2023-03-18T13:06:37.580Z,100411.75
2023-03-18T13:09:21.864Z,100431.38
2023-03-18T13:12:16.300Z,100429.81
2023-03-18T13:14:52.350Z,100419.94
2023-03-18T13:17:29.700Z,100420.41
2023-03-18T13:20:01.215Z,100417.09
2023-03-18T13:22:44.071Z,100411.91
2023-03-18T13:25:18.115Z,100401.50
2023-03-18T13:28:11.541Z,100403.97
2023-03-18T13:31:06.492Z,100415.91
2023-03-18T13:33:53.140Z,100411.75
2023-03-18T13:36:32.494Z,100408.97
2023-03-18T13:39:26.758Z,100415.66
2023-03-18T13:42:18.501Z,100411.88
2023-03-18T13:44:58.412Z,100408.97
2023-03-18T13:47:30.061Z,100406.94
2023-03-18T13:50:30.258Z,100403.81
2023-03-18T13:52:59.683Z,100401.53
2023-03-18T13:55:40.149Z,100398.38
2023-03-18T13:58:30.308Z,100387.72
2023-03-18T14:01:03.329Z,100394.78
2023-03-18T14:03:33.218Z,100389.97
2023-03-18T14:06:13.061Z,100390.50
2023-03-18T14:08:44.275Z,100386.56
2023-03-18T14:11:17.831Z,100379.13
2023-03-18T14:13:51.882Z,100391.31
2023-03-18T14:16:30.061Z,100378.63
2023-03-18T14:19:00.239Z,100378.59
2023-03-18T14:21:28.554Z,100383.63
2023-03-18T14:24:17.436Z,100375.59
2023-03-18T14:27:08.671Z,100373.50
2023-03-18T14:29:44.992Z,100367.19
2023-03-18T14:32:34.200Z,100362.41
2023-03-18T14:35:16.667Z,100363.88
2023-03-18T14:38:03.533Z,100365.81
2023-03-18T14:40:36.372Z,100361.34
2023-03-18T14:43:09.800Z,100358.31
2023-03-18T14:45:40.585Z,100358.25
2023-03-18T14:48:21.516Z,100359.34
2023-03-18T14:50:52.872Z,100368.63
2023-03-18T14:53:40.474Z,100362.81
2023-03-18T14:56:21.874Z,100354.13
2023-03-18T14:58:53.432Z,100360.69
2023-03-18T15:01:27.670Z,100352.63
2023-03-18T15:03:55.933Z,100356.47
2023-03-18T15:06:25.743Z,100351.25
2023-03-18T15:08:58.694Z,100341.56
2023-03-18T15:11:26.572Z,100348.69
2023-03-18T15:13:56.598Z,100338.28
2023-03-18T15:16:25.346Z,100335.69
2023-03-18T15:18:54.865Z,100334.94
2023-03-18T15:21:37.447Z,100337.59
2023-03-18T15:24:07.718Z,100324.34
2023-03-18T15:26:37.999Z,100326.31
2023-03-18T15:29:33.914Z,100327.78
2023-03-18T15:32:14.876Z,100335.91
2023-03-18T15:34:43.950Z,100317.47
2023-03-18T15:37:25.987Z,100328.03
2023-03-18T15:39:56.669Z,100330.91
2023-03-18T15:42:24.253Z,100334.00
2023-03-18T15:45:01.579Z,100342.06
2023-03-18T15:47:31.562Z,100334.91
2023-03-18T15:50:09.905Z,100332.84
2023-03-18T15:52:41.784Z,100342.66
2023-03-18T15:55:32.868Z,100342.75
2023-03-18T15:58:01.199Z,100339.34
2023-03-18T16:00:28.766Z,100340.16
2023-03-18T16:02:56.092Z,100345.44
2023-03-18T16:05:26.257Z,100344.63
2023-03-18T16:07:54.379Z,100349.22
2023-03-18T16:10:23.848Z,100335.81
2023-03-18T16:12:56.274Z,100337.75
2023-03-18T16:15:25.123Z,100337.91
2023-03-18T16:17:53.810Z,100341.41
2023-03-18T16:20:22.837Z,100342.88
2023-03-18T16:22:50.999Z,100343.25
2023-03-18T16:27:51.944Z,100338.25
2023-03-18T16:30:24.974Z,100342.81
2023-03-18T16:32:53.951Z,100348.09
2023-03-18T16:35:26.387Z,100340.31
2023-03-18T16:37:53.674Z,100341.41
2023-03-18T16:40:23.090Z,100348.50
2023-03-18T16:42:51.065Z,100352.91
2023-03-18T16:45:22.281Z,100357.94
2023-03-18T16:47:51.220Z,100355.97
2023-03-18T16:50:20.550Z,100358.16
2023-03-18T16:52:48.020Z,100364.69
2023-03-18T16:55:17.734Z,100367.06
2023-03-18T16:57:56.332Z,100374.66
2023-03-18T17:00:26.157Z,100379.16
2023-03-18T17:02:53.695Z,100388.41
2023-03-18T17:05:22.081Z,100389.84
2023-03-18T17:07:50.238Z,100395.31
2023-03-18T17:10:27.474Z,100398.59
2023-03-18T17:12:57.842Z,100399.78
2023-03-18T17:15:31.849Z,100405.06
2023-03-18T17:17:59.908Z,100422.09
2023-03-18T17:20:29.063Z,100422.38
2023-03-18T17:22:56.251Z,100413.94
2023-03-18T17:25:25.640Z,100422.91
2023-03-18T17:28:05.094Z,100425.88
2023-03-18T17:30:35.217Z,100438.03
2023-03-18T17:33:03.485Z,100432.09
2023-03-18T17:35:30.946Z,100432.56
2023-03-18T17:37:59.174Z,100430.84
2023-03-18T17:40:29.088Z,100430.13
2023-03-18T17:42:56.489Z,100433.25
2023-03-18T17:45:32.379Z,100431.72
2023-03-18T17:48:22.408Z,100439.91
2023-03-18T17:50:52.612Z,100437.03
2023-03-18T17:53:24.364Z,100444.94
2023-03-18T17:55:51.839Z,100432.19
2023-03-18T17:58:21.306Z,100440.03
2023-03-18T18:00:48.671Z,100442.84
2023-03-18T18:03:25.643Z,100443.06
2023-03-18T18:05:55.208Z,100449.63
2023-03-18T18:08:24.972Z,100446.97
2023-03-18T18:10:53.530Z,100449.75
2023-03-18T18:13:22.759Z,100460.06
2023-03-18T18:15:51.974Z,100458.78
2023-03-18T18:18:25.697Z,100462.69
2023-03-18T18:21:01.304Z,100465.47
2023-03-18T18:23:33.728Z,100469.94
2023-03-18T18:26:04.618Z,100475.50
2023-03-18T18:28:34.799Z,100474.00
2023-03-18T18:31:03.727Z,100467.28
2023-03-18T18:33:32.227Z,100475.06
2023-03-18T18:36:00.041Z,100472.94
2023-03-18T18:38:27.540Z,100473.13
2023-03-18T18:40:56.265Z,100479.81
2023-03-18T18:43:24.945Z,100482.81
2023-03-18T18:45:53.664Z,100478.97
2023-03-18T18:48:34.627Z,100471.72
2023-03-18T18:51:04.247Z,100473.84
2023-03-18T18:53:38.524Z,100492.00
2023-03-18T18:56:25.310Z,100487.25
2023-03-18T18:58:53.281Z,100495.34
2023-03-18T19:01:21.114Z,100491.53
2023-03-18T19:03:48.856Z,100498.47
2023-03-18T19:06:27.729Z,100493.03
2023-03-18T19:08:56.620Z,100491.88
2023-03-18T19:11:25.013Z,100498.47
2023-03-18T19:13:53.256Z,100503.19
2023-03-18T19:16:33.232Z,100506.31
2023-03-18T19:19:01.185Z,100510.47
2023-03-18T19:21:28.711Z,100509.78
2023-03-18T19:23:58.299Z,100513.13
2023-03-18T19:26:25.567Z,100519.59
2023-03-18T19:28:58.784Z,100519.38
2023-03-18T19:31:30.478Z,100522.03
2023-03-18T19:33:59.895Z,100524.56
2023-03-18T19:36:38.891Z,100526.88
2023-03-18T19:39:06.295Z,100527.44
2023-03-18T19:41:33.581Z,100536.59
2023-03-18T19:44:14.700Z,100533.59
2023-03-18T19:46:42.290Z,100547.91
2023-03-18T19:49:16.883Z,100542.72
2023-03-18T19:51:44.236Z,100547.09
2023-03-18T19:54:27.303Z,100545.25
2023-03-18T19:56:56.332Z,100541.31
2023-03-18T19:59:25.359Z,100548.16
2023-03-18T20:01:52.935Z,100548.75
2023-03-18T20:04:20.660Z,100551.59
2023-03-18T20:06:48.006Z,100563.00
2023-03-18T20:09:15.473Z,100560.22
2023-03-18T20:11:42.869Z,100565.75
2023-03-18T20:14:31.231Z,100565.66
2023-03-18T20:17:05.874Z,100569.84
2023-03-18T20:19:33.219Z,100576.63
2023-03-18T20:22:00.484Z,100576.03
2023-03-18T20:24:29.495Z,100581.28
2023-03-18T20:26:56.827Z,100584.09
2023-03-18T20:29:25.385Z,100588.28
2023-03-18T20:31:53.533Z,100596.59
2023-03-18T20:34:20.979Z,100596.69
2023-03-18T20:36:48.322Z,100590.31
2023-03-18T20:39:21.576Z,100598.50
2023-03-18T20:41:48.916Z,100595.59
2023-03-18T20:44:16.931Z,100599.88
2023-03-18T20:46:44.135Z,100606.34
2023-03-18T20:49:11.431Z,100608.81
2023-03-18T20:51:40.925Z,100614.91
2023-03-18T20:54:18.858Z,100618.59
2023-03-18T20:56:46.850Z,100610.19
2023-03-18T20:59:14.206Z,100611.81
2023-03-18T21:01:41.710Z,100620.25
2023-03-18T21:04:12.012Z,100625.59
2023-03-18T21:06:42.080Z,100626.81
2023-03-18T21:09:13.909Z,100624.25
2023-03-18T21:11:41.203Z,100621.16
2023-03-18T21:14:14.236Z,100629.34
2023-03-18T21:16:41.666Z,100626.25
2023-03-18T21:19:09.057Z,100633.13
2023-03-18T21:21:38.384Z,100629.25
2023-03-18T21:24:31.623Z,100641.28
2023-03-18T21:27:04.654Z,100633.19
2023-03-18T21:29:33.436Z,100636.16
2023-03-18T21:32:02.465Z,100633.50
2023-03-18T21:34:29.859Z,100636.25
2023-03-18T21:36:57.340Z,100638.72
2023-03-18T21:39:24.635Z,100635.06
2023-03-18T21:41:52.567Z,100635.16
2023-03-18T21:44:19.756Z,100638.91
2023-03-18T21:46:47.094Z,100640.19
2023-03-18T21:49:14.467Z,100646.13
2023-03-18T21:51:41.925Z,100640.75
2023-03-18T21:54:17.845Z,100642.97
2023-03-18T21:56:45.178Z,100641.53
2023-03-18T21:59:12.456Z,100645.13
2023-03-18T22:01:40.038Z,100654.03
2023-03-18T22:04:07.522Z,100647.22
2023-03-18T22:06:34.808Z,100643.38
2023-03-18T22:09:02.364Z,100642.34
2023-03-18T22:11:29.778Z,100645.94
2023-03-18T22:13:57.148Z,100649.44
2023-03-18T22:16:24.548Z,100646.53
2023-03-18T22:18:51.948Z,100649.91
2023-03-18T22:21:23.594Z,100651.28
2023-03-18T22:23:51.262Z,100659.72
2023-03-18T22:26:19.882Z,100653.91
2023-03-18T22:28:48.490Z,100652.03
2023-03-18T22:31:22.783Z,100656.47
2023-03-18T22:33:51.048Z,100651.75
2023-03-18T22:36:19.632Z,100648.16
2023-03-18T22:38:47.426Z,100653.34
2023-03-18T22:41:23.458Z,100646.06
2023-03-18T22:43:51.197Z,100644.03
2023-03-18T22:46:18.597Z,100650.41
2023-03-18T22:48:46.135Z,100644.59
2023-03-18T22:51:22.461Z,100651.56
2023-03-18T22:53:52.132Z,100654.31
2023-03-18T22:56:22.612Z,100653.63
2023-03-18T22:58:50.788Z,100661.81
2023-03-18T23:01:20.919Z,100663.88
2023-03-18T23:03:48.988Z,100664.09
2023-03-18T23:06:19.970Z,100662.03
2023-03-18T23:08:50.106Z,100664.09
2023-03-18T23:11:17.864Z,100660.38
2023-03-18T23:13:49.948Z,100665.53
2023-03-18T23:16:20.587Z,100662.44
2023-03-18T23:18:48.504Z,100661.47
2023-03-18T23:21:24.979Z,100670.59
2023-03-18T23:23:52.887Z,100668.91
2023-03-18T23:26:22.609Z,100669.50
2023-03-18T23:28:49.904Z,100671.41
2023-03-18T23:31:17.411Z,100677.41
2023-03-18T23:33:44.984Z,100680.09
2023-03-18T23:36:13.063Z,100675.31
2023-03-18T23:38:43.417Z,100672.56
2023-03-18T23:41:11.731Z,100677.00
2023-03-18T23:43:42.470Z,100677.19
2023-03-18T23:46:09.863Z,100668.81
2023-03-18T23:48:37.109Z,100675.22
2023-03-18T23:51:04.379Z,100676.75
2023-03-18T23:53:32.153Z,100678.75
2023-03-18T23:55:59.336Z,100679.03
2023-03-18T23:58:26.564Z,100677.00
